createdAt,value
2017-05-26T00:01:31.467Z,20.00
2017-05-26T00:03:59.802Z,19.02
2017-05-26T00:06:28.152Z,18.27
2017-05-26T00:08:56.649Z,19.43
2017-05-26T00:17:11.573Z,19.57
2017-05-26T00:19:39.917Z,18.53
2017-05-26T00:22:08.253Z,20.17
2017-05-26T00:24:36.910Z,19.22
2017-05-26T00:27:05.308Z,19.62
2017-05-26T00:29:33.647Z,17.70
2017-05-26T00:32:02.004Z,19.75
2017-05-26T00:34:30.352Z,19.72
2017-05-26T00:36:58.684Z,19.72
2017-05-26T00:39:26.316Z,19.10
2017-05-26T00:41:54.663Z,19.63
2017-05-26T00:44:22.994Z,21.18
2017-05-26T00:46:51.375Z,22.35
2017-05-26T00:49:19.712Z,20.87
2017-05-26T00:51:48.053Z,19.28
2017-05-26T00:54:16.509Z,21.57
2017-05-26T00:56:44.855Z,20.25
2017-05-26T00:59:13.194Z,23.32
2017-05-26T01:01:41.575Z,23.63
2017-05-26T01:04:09.923Z,23.52
2017-05-26T01:06:38.257Z,24.72
2017-05-26T01:09:07.110Z,23.57
2017-05-26T01:11:35.443Z,24.53
2017-05-26T01:14:03.781Z,25.10
2017-05-26T01:16:32.285Z,24.52
2017-05-26T01:19:00.632Z,25.27
2017-05-26T01:21:28.960Z,23.78
2017-05-26T01:23:57.357Z,23.83
2017-05-26T01:26:25.770Z,23.32
2017-05-26T01:28:54.112Z,22.47
2017-05-26T01:31:22.663Z,25.45
2017-05-26T01:33:51.324Z,26.05
2017-05-26T01:36:19.687Z,26.57
2017-05-26T01:38:48.072Z,28.17
2017-05-26T01:41:16.399Z,29.88
2017-05-26T01:43:44.732Z,29.82
2017-05-26T01:46:13.119Z,27.07
2017-05-26T01:48:41.460Z,29.02
2017-05-26T01:51:09.809Z,28.05
2017-05-26T01:53:37.574Z,27.73
2017-05-26T01:56:05.908Z,29.00
2017-05-26T01:58:34.251Z,29.85
2017-05-26T02:01:02.735Z,30.30
2017-05-26T02:03:31.068Z,25.98
2017-05-26T02:05:59.400Z,28.73
2017-05-26T02:08:27.919Z,29.03
2017-05-26T02:10:56.252Z,29.05
2017-05-26T02:13:23.816Z,28.28
2017-05-26T02:15:52.339Z,27.82
2017-05-26T02:18:20.664Z,26.75
2017-05-26T02:20:49.004Z,29.28
2017-05-26T02:23:17.508Z,30.15
2017-05-26T02:25:45.851Z,28.00
2017-05-26T02:28:14.189Z,27.05
2017-05-26T02:30:42.656Z,27.67
2017-05-26T02:33:11.005Z,27.27
2017-05-26T02:35:39.344Z,28.35
2017-05-26T02:38:07.846Z,26.45
2017-05-26T02:40:36.191Z,27.92
2017-05-26T02:43:04.520Z,27.53
2017-05-26T02:45:32.987Z,26.73
2017-05-26T02:48:01.326Z,24.93
2017-05-26T02:50:29.720Z,26.90
2017-05-26T02:52:58.184Z,27.03
2017-05-26T02:55:26.528Z,27.03
2017-05-26T02:57:54.855Z,28.83
2017-05-26T03:00:23.364Z,28.30
2017-05-26T03:02:51.700Z,28.73
2017-05-26T03:05:20.047Z,28.30
2017-05-26T03:07:48.517Z,26.78
2017-05-26T03:10:16.857Z,28.47
2017-05-26T03:12:45.185Z,28.68
2017-05-26T03:15:13.643Z,25.95
2017-05-26T03:17:41.980Z,26.00
2017-05-26T03:20:10.309Z,26.40
2017-05-26T03:22:38.039Z,26.20
2017-05-26T03:25:06.387Z,26.42
2017-05-26T03:27:34.721Z,25.62
2017-05-26T03:30:02.466Z,25.08
2017-05-26T03:32:30.799Z,24.92
2017-05-26T03:34:59.131Z,24.37
2017-05-26T03:37:27.596Z,24.60
2017-05-26T03:39:55.981Z,23.15
2017-05-26T03:42:24.292Z,24.73
2017-05-26T03:44:52.842Z,22.93
2017-05-26T03:47:21.187Z,25.65
2017-05-26T03:49:49.550Z,22.02
2017-05-26T03:52:18.345Z,24.58
2017-05-26T03:54:46.675Z,22.25
2017-05-26T03:57:15.038Z,19.97
2017-05-26T03:59:43.416Z,21.32
2017-05-26T04:02:11.747Z,19.55
2017-05-26T04:04:40.093Z,20.27
2017-05-26T04:07:08.595Z,19.88
2017-05-26T04:09:36.928Z,19.85
2017-05-26T04:12:05.275Z,20.05
2017-05-26T04:14:33.779Z,19.98
2017-05-26T04:17:02.135Z,19.58
2017-05-26T04:19:30.503Z,19.35
2017-05-26T04:21:59.272Z,19.48
2017-05-26T04:24:27.606Z,20.85
2017-05-26T04:26:55.963Z,17.30
2017-05-26T04:29:24.430Z,19.87
2017-05-26T04:31:52.773Z,17.77
2017-05-26T04:34:21.112Z,18.15
2017-05-26T04:36:49.503Z,20.67
2017-05-26T04:39:17.841Z,18.88
2017-05-26T04:41:46.179Z,19.78
2017-05-26T04:44:14.746Z,19.13
2017-05-26T04:46:43.092Z,19.18
2017-05-26T04:49:11.444Z,19.68
2017-05-26T04:51:39.955Z,18.92
2017-05-26T04:54:08.304Z,17.38
2017-05-26T04:56:36.641Z,18.08
2017-05-26T04:59:05.463Z,19.12
2017-05-26T05:01:33.815Z,18.92
2017-05-26T05:04:02.155Z,17.77
2017-05-26T05:06:30.819Z,17.60
2017-05-26T05:08:59.157Z,17.68
2017-05-26T05:11:27.497Z,18.55
2017-05-26T05:13:55.905Z,17.53
2017-05-26T05:16:24.255Z,16.32
2017-05-26T05:18:52.608Z,18.80
2017-05-26T05:21:21.016Z,18.37
2017-05-26T05:23:49.389Z,17.02
2017-05-26T05:26:17.730Z,16.62
2017-05-26T05:28:46.204Z,17.97
2017-05-26T05:31:14.540Z,16.88
2017-05-26T05:33:42.877Z,17.22
2017-05-26T05:36:11.360Z,17.75
2017-05-26T05:38:39.696Z,17.68
2017-05-26T05:41:08.020Z,15.48
2017-05-26T05:43:36.379Z,17.38
2017-05-26T05:46:04.725Z,18.18
2017-05-26T05:48:33.056Z,17.88
2017-05-26T05:51:01.425Z,17.18
2017-05-26T05:53:29.758Z,17.47
2017-05-26T05:55:58.087Z,15.82
2017-05-26T05:58:26.553Z,16.68
2017-05-26T06:00:54.883Z,15.77
2017-05-26T06:03:23.234Z,15.13
2017-05-26T06:05:51.780Z,15.93
2017-05-26T06:08:20.121Z,14.95
2017-05-26T06:10:48.453Z,16.47
2017-05-26T06:13:16.812Z,16.30
2017-05-26T06:15:45.142Z,15.53
2017-05-26T06:18:13.472Z,16.20
2017-05-26T06:20:41.873Z,15.10
2017-05-26T06:23:10.207Z,15.62
2017-05-26T06:25:38.537Z,14.97
2017-05-26T06:28:07.045Z,17.85
2017-05-26T06:30:35.387Z,16.97
2017-05-26T06:33:03.727Z,16.42
2017-05-26T06:35:32.106Z,17.12
2017-05-26T06:38:00.431Z,18.38
2017-05-26T06:40:28.760Z,16.68
2017-05-26T06:42:57.212Z,17.00
2017-05-26T06:45:25.540Z,16.75
2017-05-26T06:47:53.890Z,16.87
2017-05-26T06:50:22.355Z,16.00
2017-05-26T06:52:50.688Z,16.25
2017-05-26T06:55:19.023Z,14.93
2017-05-26T06:57:47.392Z,16.00
2017-05-26T07:00:15.759Z,15.33
2017-05-26T07:02:44.102Z,14.48
2017-05-26T07:05:12.700Z,15.67
2017-05-26T07:07:41.041Z,14.50
2017-05-26T07:10:09.392Z,14.92
2017-05-26T07:12:38.198Z,15.33
2017-05-26T07:15:06.657Z,13.93
2017-05-26T07:17:34.984Z,14.45
2017-05-26T07:20:03.356Z,13.08
2017-05-26T07:22:31.689Z,14.67
2017-05-26T07:25:00.016Z,13.13
2017-05-26T07:27:28.539Z,14.28
2017-05-26T07:29:56.868Z,14.43
2017-05-26T07:32:25.191Z,13.68
2017-05-26T07:34:53.815Z,12.33
2017-05-26T07:37:22.161Z,12.32
2017-05-26T07:39:50.515Z,12.27
2017-05-26T07:42:18.965Z,12.87
2017-05-26T07:44:47.295Z,10.95
2017-05-26T07:47:15.619Z,12.57
2017-05-26T07:49:44.276Z,12.37
2017-05-26T07:52:12.623Z,11.92
2017-05-26T07:54:40.952Z,14.23
2017-05-26T07:57:09.463Z,12.90
2017-05-26T07:59:37.788Z,13.38
2017-05-26T08:02:06.140Z,13.32
2017-05-26T08:04:34.752Z,11.53
2017-05-26T08:07:03.086Z,13.05
2017-05-26T08:09:31.424Z,12.53
2017-05-26T08:11:59.979Z,12.15
2017-05-26T08:14:29.143Z,13.17
2017-05-26T08:16:57.468Z,14.10
2017-05-26T08:19:25.873Z,12.88
2017-05-26T08:21:54.210Z,13.85
2017-05-26T08:24:22.547Z,13.22
2017-05-26T08:26:51.189Z,12.10
2017-05-26T08:29:19.529Z,15.47
2017-05-26T08:31:47.888Z,12.48
2017-05-26T08:34:16.427Z,14.58
2017-05-26T08:36:44.779Z,15.47
2017-05-26T08:39:13.117Z,15.13
2017-05-26T08:41:41.653Z,14.20
2017-05-26T08:44:10.010Z,14.30
2017-05-26T08:49:13.341Z,12.43
2017-05-26T08:51:41.674Z,13.58
2017-05-26T08:54:10.005Z,13.32
2017-05-26T08:56:38.368Z,12.52
2017-05-26T08:59:06.725Z,13.55
2017-05-26T09:01:35.059Z,13.40
2017-05-26T09:04:03.608Z,12.35
2017-05-26T09:06:31.943Z,13.47
2017-05-26T09:09:00.291Z,12.45
2017-05-26T09:11:28.716Z,14.53
2017-05-26T09:13:57.057Z,15.12
2017-05-26T09:16:25.395Z,15.45
2017-05-26T09:18:54.000Z,16.78
2017-05-26T09:21:22.329Z,14.78
2017-05-26T09:23:50.658Z,15.63
2017-05-26T09:26:19.025Z,16.50
2017-05-26T09:28:47.370Z,15.22
2017-05-26T09:31:15.725Z,17.13
2017-05-26T09:33:44.364Z,17.55
2017-05-26T09:36:12.702Z,16.25
2017-05-26T09:38:41.039Z,15.55
2017-05-26T09:41:09.461Z,16.35
2017-05-26T09:43:37.798Z,17.78
2017-05-26T09:46:06.131Z,16.57
2017-05-26T09:48:34.527Z,18.30
2017-05-26T09:51:02.102Z,14.60
2017-05-26T09:53:30.604Z,15.92
2017-05-26T09:55:58.439Z,16.57
2017-05-26T09:58:26.780Z,14.52
2017-05-26T10:00:55.112Z,15.95
2017-05-26T10:03:23.508Z,14.12
2017-05-26T10:05:51.851Z,15.50
2017-05-26T10:08:20.202Z,15.47
2017-05-26T10:10:48.911Z,14.98
2017-05-26T10:13:17.239Z,15.90
2017-05-26T10:15:45.584Z,15.70
2017-05-26T10:18:14.140Z,15.12
2017-05-26T10:20:42.487Z,14.43
2017-05-26T10:23:10.824Z,15.05
2017-05-26T10:25:39.380Z,15.73
2017-05-26T10:28:07.730Z,16.78
2017-05-26T10:30:36.067Z,18.93
2017-05-26T10:33:04.724Z,17.93
2017-05-26T10:35:33.059Z,16.85
2017-05-26T10:38:01.412Z,17.23
2017-05-26T10:40:29.796Z,18.42
2017-05-26T10:42:58.144Z,16.64
2017-05-26T10:45:26.485Z,19.37
2017-05-26T10:47:55.101Z,17.92
2017-05-26T10:50:23.444Z,20.53
2017-05-26T10:52:51.777Z,19.45
2017-05-26T10:55:20.260Z,20.33
2017-05-26T10:57:48.585Z,18.56
2017-05-26T11:00:16.923Z,18.75
2017-05-26T11:02:45.470Z,16.40
2017-05-26T11:05:13.813Z,17.40
2017-05-26T11:07:42.153Z,17.32
2017-05-26T11:10:10.618Z,16.26
2017-05-26T11:12:38.957Z,19.27
2017-05-26T11:15:07.305Z,15.68
2017-05-26T11:17:35.735Z,14.43
2017-05-26T11:20:04.087Z,15.30
2017-05-26T11:22:32.421Z,17.54
2017-05-26T11:25:00.885Z,15.25
2017-05-26T11:27:29.219Z,13.84
2017-05-26T11:29:57.552Z,15.52
2017-05-26T11:32:26.317Z,16.22
2017-05-26T11:34:54.652Z,16.14
2017-05-26T11:37:23.004Z,14.30
2017-05-26T11:39:51.507Z,14.22
2017-05-26T11:42:19.837Z,14.66
2017-05-26T11:44:48.170Z,13.10
2017-05-26T11:47:16.891Z,15.78
2017-05-26T11:49:45.226Z,14.94
2017-05-26T11:52:12.793Z,14.90
2017-05-26T11:54:41.247Z,16.06
2017-05-26T11:57:09.588Z,14.12
2017-05-26T11:59:37.952Z,14.56
2017-05-26T12:02:06.653Z,16.36
2017-05-26T12:04:34.983Z,17.74
2017-05-26T12:07:03.313Z,16.44
2017-05-26T12:09:31.901Z,16.70
2017-05-26T12:12:00.336Z,16.86
2017-05-26T12:14:29.128Z,15.34
2017-05-26T12:16:57.752Z,12.80
2017-05-26T12:19:26.088Z,14.66
2017-05-26T12:21:54.421Z,13.98
2017-05-26T12:24:22.821Z,12.38
2017-05-26T12:26:51.155Z,12.96
2017-05-26T12:29:19.491Z,16.22
2017-05-26T12:31:48.117Z,16.72
2017-05-26T12:34:16.464Z,14.14
2017-05-26T12:36:44.793Z,16.24
2017-05-26T12:39:13.164Z,14.32
2017-05-26T12:41:41.495Z,14.50
2017-05-26T12:44:09.894Z,16.08
2017-05-26T12:46:38.348Z,15.92
2017-05-26T12:49:06.671Z,13.48
2017-05-26T12:51:34.994Z,13.48
2017-05-26T12:54:03.351Z,12.92
2017-05-26T12:56:31.680Z,12.08
2017-05-26T12:59:00.015Z,13.64
2017-05-26T13:01:28.553Z,12.98
2017-05-26T13:03:56.881Z,14.36
2017-05-26T13:06:25.208Z,11.62
2017-05-26T13:08:53.785Z,12.00
2017-05-26T13:11:22.152Z,9.12
2017-05-26T13:13:50.477Z,9.64
2017-05-26T13:16:18.928Z,9.76
2017-05-26T13:18:47.266Z,10.92
2017-05-26T13:21:15.609Z,11.08
2017-05-26T13:23:44.085Z,11.58
2017-05-26T13:26:12.425Z,11.64
2017-05-26T13:28:40.749Z,9.82
2017-05-26T13:31:09.219Z,9.46
2017-05-26T13:33:37.545Z,8.00
2017-05-26T13:36:05.880Z,8.54
2017-05-26T13:38:34.427Z,8.10
2017-05-26T13:41:02.780Z,7.22
2017-05-26T13:43:31.107Z,8.26
2017-05-26T13:45:59.671Z,6.78
2017-05-26T13:48:27.998Z,7.30
2017-05-26T13:50:56.319Z,6.30
2017-05-26T13:53:25.014Z,4.50
2017-05-26T13:55:53.342Z,3.10
2017-05-26T13:58:21.671Z,3.08
2017-05-26T14:00:50.042Z,3.20
2017-05-26T14:03:18.360Z,2.44
2017-05-26T14:05:46.691Z,4.60
2017-05-26T14:08:15.154Z,3.42
2017-05-26T14:10:43.496Z,2.94
2017-05-26T14:13:11.819Z,3.12
2017-05-26T14:15:40.173Z,3.10
2017-05-26T14:18:08.560Z,3.20
2017-05-26T14:20:36.909Z,3.06
2017-05-26T14:23:05.359Z,3.04
2017-05-26T14:25:33.683Z,3.10
2017-05-26T14:28:02.029Z,3.16
2017-05-26T14:30:30.588Z,3.08
2017-05-26T14:32:58.911Z,3.28
2017-05-26T14:35:27.240Z,3.32
2017-05-26T14:37:55.928Z,2.78
2017-05-26T14:40:24.257Z,3.12
2017-05-26T14:42:52.576Z,3.40
2017-05-26T14:45:20.955Z,3.28
2017-05-26T14:47:49.280Z,3.28
2017-05-26T14:50:17.607Z,3.20
2017-05-26T14:52:45.992Z,3.22
2017-05-26T14:55:14.321Z,2.82
2017-05-26T14:57:42.640Z,3.92
2017-05-26T15:00:11.224Z,3.82
2017-05-26T15:02:39.556Z,3.02
2017-05-26T15:05:07.879Z,3.64
2017-05-26T15:07:36.363Z,3.96
2017-05-26T15:10:04.707Z,4.50
2017-05-26T15:12:33.047Z,3.78
2017-05-26T15:15:01.403Z,4.48
2017-05-26T15:17:29.736Z,3.82
2017-05-26T15:19:58.060Z,3.08
2017-05-26T15:22:26.423Z,3.66
2017-05-26T15:24:54.756Z,3.76
2017-05-26T15:27:23.099Z,3.74
2017-05-26T15:29:51.659Z,3.76
2017-05-26T15:32:19.985Z,4.84
2017-05-26T15:34:48.325Z,3.78
2017-05-26T15:37:16.933Z,3.54
2017-05-26T15:39:45.258Z,3.40
2017-05-26T15:42:13.589Z,3.50
2017-05-26T15:44:41.945Z,3.42
2017-05-26T15:47:10.265Z,3.70
2017-05-26T15:49:38.600Z,3.86
2017-05-26T15:52:07.176Z,3.82
2017-05-26T15:54:35.499Z,4.50
2017-05-26T15:57:03.824Z,3.82
2017-05-26T15:59:32.512Z,2.90
2017-05-26T16:02:00.844Z,3.74
2017-05-26T16:04:29.167Z,4.62
2017-05-26T16:06:57.536Z,3.40
2017-05-26T16:09:25.872Z,4.62
2017-05-26T16:11:54.192Z,3.50
2017-05-26T16:14:22.558Z,3.80
2017-05-26T16:16:50.880Z,3.52
2017-05-26T16:19:19.212Z,4.70
2017-05-26T16:21:47.595Z,3.36
2017-05-26T16:24:15.920Z,3.32
2017-05-26T16:26:44.246Z,2.98
2017-05-26T16:29:12.605Z,3.00
2017-05-26T16:31:40.932Z,3.54
2017-05-26T16:34:09.258Z,3.00
2017-05-26T16:36:37.822Z,3.10
2017-05-26T16:39:06.155Z,3.34
2017-05-26T16:41:34.476Z,2.92
2017-05-26T16:44:03.116Z,3.50
2017-05-26T16:46:31.451Z,3.30
2017-05-26T16:48:59.777Z,3.88
2017-05-26T16:51:28.456Z,3.40
2017-05-26T16:53:56.779Z,3.64
2017-05-26T16:56:25.103Z,3.48
2017-05-26T16:58:53.803Z,3.04
2017-05-26T17:01:21.365Z,3.70
2017-05-26T17:03:48.936Z,3.52
2017-05-26T17:06:16.540Z,3.02
2017-05-26T17:08:44.863Z,3.50
2017-05-26T17:11:13.199Z,3.32
2017-05-26T17:13:41.548Z,3.20
2017-05-26T17:16:09.900Z,3.30
2017-05-26T17:18:38.228Z,3.80
2017-05-26T17:21:06.735Z,4.06
2017-05-26T17:23:35.126Z,4.10
2017-05-26T17:26:03.440Z,4.42
2017-05-26T17:28:31.908Z,3.56
2017-05-26T17:31:00.236Z,3.80
2017-05-26T17:33:28.560Z,3.58
2017-05-26T17:35:57.009Z,3.98
2017-05-26T17:38:25.338Z,3.62
2017-05-26T17:40:53.663Z,3.42
2017-05-26T17:43:22.023Z,3.40
2017-05-26T17:45:50.384Z,4.18
2017-05-26T17:48:18.728Z,3.42
2017-05-26T17:50:47.115Z,3.22
2017-05-26T17:53:15.463Z,3.32
2017-05-26T17:55:44.748Z,2.94
2017-05-26T17:58:13.327Z,2.80
2017-05-26T18:00:41.651Z,3.00
2017-05-26T18:03:09.984Z,2.80
2017-05-26T18:05:38.570Z,2.42
2017-05-26T18:08:06.906Z,2.62
2017-05-26T18:10:35.221Z,2.68
2017-05-26T18:13:03.575Z,2.86
2017-05-26T18:15:31.908Z,3.12
2017-05-26T18:18:00.231Z,2.90
2017-05-26T18:20:28.840Z,2.10
2017-05-26T18:22:57.177Z,2.64
2017-05-26T18:25:25.511Z,2.10
2017-05-26T18:27:54.086Z,2.22
2017-05-26T18:30:22.425Z,2.20
2017-05-26T18:32:50.755Z,2.06
2017-05-26T18:35:19.272Z,1.80
2017-05-26T18:37:47.621Z,2.00
2017-05-26T18:40:15.970Z,1.54
2017-05-26T18:42:44.348Z,1.64
2017-05-26T18:45:12.688Z,1.94
2017-05-26T18:47:41.031Z,1.86
2017-05-26T18:50:09.410Z,1.86
2017-05-26T18:52:37.756Z,1.80
2017-05-26T18:55:06.104Z,2.40
2017-05-26T18:57:34.475Z,1.88
2017-05-26T19:00:02.809Z,1.80
2017-05-26T19:02:31.139Z,1.88
2017-05-26T19:04:59.493Z,1.58
2017-05-26T19:07:27.819Z,1.42
2017-05-26T19:09:56.320Z,2.20
2017-05-26T19:12:24.712Z,2.04
2017-05-26T19:14:53.037Z,2.02
2017-05-26T19:17:21.366Z,2.22
2017-05-26T19:19:49.970Z,3.38
2017-05-26T19:22:18.319Z,2.38
2017-05-26T19:24:46.648Z,2.88
2017-05-26T19:27:15.269Z,2.50
2017-05-26T19:29:42.832Z,2.24
2017-05-26T19:32:11.165Z,2.90
2017-05-26T19:34:39.885Z,2.12
2017-05-26T19:37:08.221Z,1.90
2017-05-26T19:39:36.547Z,2.42
2017-05-26T19:42:04.914Z,2.32
2017-05-26T19:44:33.280Z,2.52
2017-05-26T19:47:01.616Z,2.18
2017-05-26T19:49:29.980Z,2.50
2017-05-26T19:51:58.314Z,2.38
2017-05-26T19:54:27.321Z,2.67
2017-05-26T19:56:55.776Z,3.03
2017-05-26T19:59:23.353Z,2.40
2017-05-26T20:01:50.933Z,2.80
2017-05-26T20:04:19.310Z,2.57
2017-05-26T20:06:47.650Z,2.45
2017-05-26T20:09:15.984Z,2.70
2017-05-26T20:11:44.484Z,3.67
2017-05-26T20:14:12.828Z,3.43
2017-05-26T20:16:41.165Z,3.60
2017-05-26T20:19:09.715Z,4.62
2017-05-26T20:21:38.055Z,3.60
2017-05-26T20:24:06.387Z,2.92
2017-05-26T20:26:34.758Z,2.43
2017-05-26T20:29:03.087Z,2.72
2017-05-26T20:31:30.657Z,3.15
2017-05-26T20:33:59.338Z,3.03
2017-05-26T20:36:27.701Z,2.90
2017-05-26T20:38:56.039Z,2.83
2017-05-26T20:41:24.403Z,3.25
2017-05-26T20:43:52.748Z,3.05
2017-05-26T20:46:21.085Z,2.97
2017-05-26T20:48:49.543Z,3.23
2017-05-26T20:51:18.021Z,2.72
2017-05-26T20:53:46.416Z,3.23
2017-05-26T20:56:15.032Z,3.47
2017-05-26T20:58:43.363Z,3.93
2017-05-26T21:01:11.689Z,3.78
2017-05-26T21:03:40.347Z,3.65
2017-05-26T21:06:08.774Z,4.57
2017-05-26T21:08:37.104Z,4.83
2017-05-26T21:11:05.471Z,5.33
2017-05-26T21:13:33.797Z,6.97
2017-05-26T21:16:02.534Z,9.18
2017-05-26T21:18:31.902Z,8.97
2017-05-26T21:21:01.245Z,8.57
2017-05-26T21:23:29.707Z,7.07
2017-05-26T21:25:58.056Z,8.03
2017-05-26T21:28:26.384Z,7.47
2017-05-26T21:30:54.712Z,6.33
2017-05-26T21:33:23.144Z,7.67
2017-05-26T21:35:51.477Z,6.12
2017-05-26T21:38:19.811Z,4.57
2017-05-26T21:40:48.325Z,4.70
2017-05-26T21:43:16.659Z,4.40
2017-05-26T21:45:45.008Z,4.72
2017-05-26T21:48:13.629Z,4.53
2017-05-26T21:50:41.184Z,4.23
2017-05-26T21:53:09.534Z,4.30
2017-05-26T21:55:38.040Z,4.57
2017-05-26T21:58:06.364Z,4.38
2017-05-26T22:00:34.708Z,4.15
2017-05-26T22:03:03.221Z,3.95
2017-05-26T22:05:31.561Z,3.60
2017-05-26T22:07:59.964Z,3.60
2017-05-26T22:10:28.355Z,3.98
2017-05-26T22:12:56.690Z,5.75
2017-05-26T22:15:25.019Z,5.00
2017-05-26T22:17:53.520Z,4.95
2017-05-26T22:20:21.872Z,4.78
2017-05-26T22:22:50.198Z,5.58
2017-05-26T22:25:18.717Z,4.53
2017-05-26T22:27:47.052Z,5.23
2017-05-26T22:30:15.409Z,4.83
2017-05-26T22:32:43.776Z,5.08
2017-05-26T22:35:12.112Z,4.77
2017-05-26T22:37:40.458Z,4.47
2017-05-26T22:40:08.861Z,4.62
2017-05-26T22:42:38.136Z,4.20
2017-05-26T22:45:06.485Z,4.42
2017-05-26T22:47:34.937Z,4.52
2017-05-26T22:50:03.287Z,4.38
2017-05-26T22:52:31.621Z,3.82
2017-05-26T22:55:00.106Z,5.10
2017-05-26T22:57:28.457Z,3.63
2017-05-26T22:59:56.798Z,4.42
2017-05-26T23:02:25.243Z,4.32
2017-05-26T23:04:53.567Z,4.42
2017-05-26T23:07:21.897Z,4.02
2017-05-26T23:09:50.268Z,3.92
2017-05-26T23:12:18.604Z,4.43
2017-05-26T23:14:46.940Z,4.28
2017-05-26T23:17:15.675Z,4.18
2017-05-26T23:19:44.015Z,5.05
2017-05-26T23:22:12.348Z,4.98
2017-05-26T23:24:40.808Z,5.23
2017-05-26T23:27:09.136Z,5.02
2017-05-26T23:29:36.724Z,4.93
2017-05-26T23:32:05.187Z,4.83
2017-05-26T23:34:33.524Z,5.18
2017-05-26T23:37:01.869Z,5.25
2017-05-26T23:39:30.458Z,4.82
2017-05-26T23:41:58.799Z,4.60
2017-05-26T23:44:27.128Z,4.88
2017-05-26T23:46:55.992Z,5.18
2017-05-26T23:49:23.557Z,4.70
2017-05-26T23:51:51.908Z,4.72
2017-05-26T23:54:20.287Z,5.03
2017-05-26T23:56:48.631Z,4.75
2017-05-26T23:59:16.211Z,4.07
